sensor_id;sensor_type;location;lat;lon;timestamp;noise_LAeq;noise_LA_min;noise_LA_max;noise_LA01;noise_LA95
76339;Laerm;26644;50.248;19.032;2023-07-20T00:00:22;47.71;41.89;61.01;;
76339;Laerm;26644;50.248;19.032;2023-07-20T00:03:26;49.12;43.16;64.12;;
76339;Laerm;26644;50.248;19.032;2023-07-20T00:06:33;47.18;40.63;54.37;;
76339;Laerm;26644;50.248;19.032;2023-07-20T00:09:41;49.22;41.99;59.21;;
76339;Laerm;26644;50.248;19.032;2023-07-20T00:12:46;48.60;43.56;53.16;;
76339;Laerm;26644;50.248;19.032;2023-07-20T00:15:51;47.02;42.73;55.65;;
76339;Laerm;26644;50.248;19.032;2023-07-20T00:18:56;48.82;43.60;54.05;;
76339;Laerm;26644;50.248;19.032;2023-07-20T00:22:04;47.78;43.92;54.11;;
76339;Laerm;26644;50.248;19.032;2023-07-20T00:25:09;48.29;43.21;54.89;;
76339;Laerm;26644;50.248;19.032;2023-07-20T00:28:14;49.36;43.72;59.15;;
76339;Laerm;26644;50.248;19.032;2023-07-20T00:31:19;48.65;43.34;57.52;;
76339;Laerm;26644;50.248;19.032;2023-07-20T00:34:23;47.98;42.18;54.91;;
76339;Laerm;26644;50.248;19.032;2023-07-20T00:37:32;48.21;43.81;56.62;;
76339;Laerm;26644;50.248;19.032;2023-07-20T00:40:37;48.61;44.42;54.86;;
76339;Laerm;26644;50.248;19.032;2023-07-20T00:43:42;48.31;41.93;57.61;;
76339;Laerm;26644;50.248;19.032;2023-07-20T00:46:47;47.38;42.80;54.90;;
76339;Laerm;26644;50.248;19.032;2023-07-20T00:49:53;48.01;43.22;54.14;;
76339;Laerm;26644;50.248;19.032;2023-07-20T00:53:04;49.66;43.78;57.96;;
76339;Laerm;26644;50.248;19.032;2023-07-20T00:56:09;48.69;44.77;55.56;;
76339;Laerm;26644;50.248;19.032;2023-07-20T00:59:14;48.32;43.92;64.32;;
76339;Laerm;26644;50.248;19.032;2023-07-20T01:02:19;49.85;45.00;55.28;;
76339;Laerm;26644;50.248;19.032;2023-07-20T01:05:38;46.34;40.95;53.19;;
76339;Laerm;26644;50.248;19.032;2023-07-20T01:09:04;47.40;41.95;52.26;;
76339;Laerm;26644;50.248;19.032;2023-07-20T01:12:26;46.16;40.68;59.22;;
76339;Laerm;26644;50.248;19.032;2023-07-20T01:15:34;46.14;41.10;52.34;;
76339;Laerm;26644;50.248;19.032;2023-07-20T01:18:38;46.52;41.73;52.09;;
76339;Laerm;26644;50.248;19.032;2023-07-20T01:21:54;46.54;42.21;52.80;;
76339;Laerm;26644;50.248;19.032;2023-07-20T01:25:34;46.58;42.78;53.63;;
76339;Laerm;26644;50.248;19.032;2023-07-20T01:29:17;48.84;42.21;60.39;;
76339;Laerm;26644;50.248;19.032;2023-07-20T01:32:31;47.15;42.94;51.37;;
76339;Laerm;26644;50.248;19.032;2023-07-20T01:35:41;46.20;42.42;51.72;;
76339;Laerm;26644;50.248;19.032;2023-07-20T01:38:47;47.24;43.48;52.00;;
76339;Laerm;26644;50.248;19.032;2023-07-20T01:41:53;47.23;43.57;51.51;;
76339;Laerm;26644;50.248;19.032;2023-07-20T01:44:57;47.59;43.34;55.51;;
76339;Laerm;26644;50.248;19.032;2023-07-20T01:48:05;48.12;43.56;53.68;;
76339;Laerm;26644;50.248;19.032;2023-07-20T01:51:11;47.44;43.37;52.43;;
76339;Laerm;26644;50.248;19.032;2023-07-20T01:54:16;47.58;43.97;52.05;;
76339;Laerm;26644;50.248;19.032;2023-07-20T01:57:21;47.22;41.87;54.27;;
76339;Laerm;26644;50.248;19.032;2023-07-20T02:00:26;47.67;43.35;53.26;;
76339;Laerm;26644;50.248;19.032;2023-07-20T02:03:33;48.26;43.07;54.29;;
76339;Laerm;26644;50.248;19.032;2023-07-20T02:06:37;48.24;42.95;54.72;;
76339;Laerm;26644;50.248;19.032;2023-07-20T02:09:42;47.35;43.12;55.50;;
76339;Laerm;26644;50.248;19.032;2023-07-20T02:12:46;47.13;42.56;51.29;;
76339;Laerm;26644;50.248;19.032;2023-07-20T02:15:51;49.99;46.64;54.52;;
76339;Laerm;26644;50.248;19.032;2023-07-20T02:18:59;49.50;46.24;53.39;;
76339;Laerm;26644;50.248;19.032;2023-07-20T02:22:04;48.51;44.02;54.34;;
76339;Laerm;26644;50.248;19.032;2023-07-20T02:25:09;49.35;43.30;59.06;;
76339;Laerm;26644;50.248;19.032;2023-07-20T02:28:14;49.07;44.65;64.23;;
76339;Laerm;26644;50.248;19.032;2023-07-20T02:31:18;49.06;45.05;53.84;;
76339;Laerm;26644;50.248;19.032;2023-07-20T02:34:26;50.22;46.67;55.30;;
76339;Laerm;26644;50.248;19.032;2023-07-20T02:37:30;50.72;47.02;59.81;;
76339;Laerm;26644;50.248;19.032;2023-07-20T02:40:35;52.06;48.34;56.36;;
76339;Laerm;26644;50.248;19.032;2023-07-20T02:43:39;50.63;47.90;56.38;;
76339;Laerm;26644;50.248;19.032;2023-07-20T02:46:44;50.36;46.70;53.59;;
76339;Laerm;26644;50.248;19.032;2023-07-20T02:49:54;50.76;46.96;61.30;;
76339;Laerm;26644;50.248;19.032;2023-07-20T02:52:59;51.05;47.13;55.55;;
76339;Laerm;26644;50.248;19.032;2023-07-20T02:56:03;50.97;47.18;55.41;;
76339;Laerm;26644;50.248;19.032;2023-07-20T02:59:08;48.82;44.96;52.96;;
76339;Laerm;26644;50.248;19.032;2023-07-20T03:02:12;49.32;45.67;53.68;;
76339;Laerm;26644;50.248;19.032;2023-07-20T03:05:20;50.82;46.38;56.00;;
76339;Laerm;26644;50.248;19.032;2023-07-20T03:08:26;50.54;46.40;55.57;;
76339;Laerm;26644;50.248;19.032;2023-07-20T03:11:33;50.29;46.71;53.79;;
76339;Laerm;26644;50.248;19.032;2023-07-20T03:14:37;50.31;47.10;54.25;;
76339;Laerm;26644;50.248;19.032;2023-07-20T03:17:42;50.01;47.03;53.93;;
76339;Laerm;26644;50.248;19.032;2023-07-20T03:20:49;50.73;47.34;59.59;;
76339;Laerm;26644;50.248;19.032;2023-07-20T03:23:54;50.91;47.63;57.79;;
76339;Laerm;26644;50.248;19.032;2023-07-20T03:26:58;51.11;46.70;62.56;;
76339;Laerm;26644;50.248;19.032;2023-07-20T03:30:06;51.06;47.47;56.81;;
76339;Laerm;26644;50.248;19.032;2023-07-20T03:33:10;51.71;47.23;62.80;;
76339;Laerm;26644;50.248;19.032;2023-07-20T03:36:18;51.55;48.46;54.61;;
76339;Laerm;26644;50.248;19.032;2023-07-20T03:39:22;51.16;47.98;55.18;;
76339;Laerm;26644;50.248;19.032;2023-07-20T03:42:27;51.07;47.45;62.21;;
76339;Laerm;26644;50.248;19.032;2023-07-20T03:45:31;51.19;47.21;55.85;;
76339;Laerm;26644;50.248;19.032;2023-07-20T03:48:36;51.56;48.42;61.86;;
76339;Laerm;26644;50.248;19.032;2023-07-20T03:51:43;51.16;47.97;56.18;;
76339;Laerm;26644;50.248;19.032;2023-07-20T03:54:48;50.58;46.62;74.81;;
76339;Laerm;26644;50.248;19.032;2023-07-20T03:57:52;50.26;45.85;60.59;;
76339;Laerm;26644;50.248;19.032;2023-07-20T04:00:57;50.61;47.08;55.68;;
76339;Laerm;26644;50.248;19.032;2023-07-20T04:04:05;49.97;46.46;54.25;;
76339;Laerm;26644;50.248;19.032;2023-07-20T04:07:13;49.69;46.12;58.29;;
76339;Laerm;26644;50.248;19.032;2023-07-20T04:10:17;50.35;46.44;57.68;;
76339;Laerm;26644;50.248;19.032;2023-07-20T04:13:22;50.20;46.68;58.83;;
76339;Laerm;26644;50.248;19.032;2023-07-20T04:16:27;52.07;47.93;69.56;;
76339;Laerm;26644;50.248;19.032;2023-07-20T04:19:32;51.84;47.78;68.31;;
76339;Laerm;26644;50.248;19.032;2023-07-20T04:22:39;51.67;47.38;67.28;;
76339;Laerm;26644;50.248;19.032;2023-07-20T04:25:47;51.44;47.90;63.70;;
76339;Laerm;26644;50.248;19.032;2023-07-20T04:28:51;51.28;47.57;61.98;;
76339;Laerm;26644;50.248;19.032;2023-07-20T04:32:10;50.85;46.58;61.52;;
76339;Laerm;26644;50.248;19.032;2023-07-20T04:35:25;51.33;48.28;65.98;;
76339;Laerm;26644;50.248;19.032;2023-07-20T04:38:47;51.37;47.33;72.77;;
76339;Laerm;26644;50.248;19.032;2023-07-20T04:41:56;51.66;47.73;64.73;;
76339;Laerm;26644;50.248;19.032;2023-07-20T04:45:01;51.47;48.08;65.07;;
76339;Laerm;26644;50.248;19.032;2023-07-20T04:48:12;51.73;48.45;62.48;;
76339;Laerm;26644;50.248;19.032;2023-07-20T04:51:23;50.71;47.89;58.00;;
76339;Laerm;26644;50.248;19.032;2023-07-20T04:54:32;50.85;47.32;60.49;;
76339;Laerm;26644;50.248;19.032;2023-07-20T04:57:37;51.03;48.10;63.02;;
76339;Laerm;26644;50.248;19.032;2023-07-20T05:00:42;52.24;48.30;65.96;;
76339;Laerm;26644;50.248;19.032;2023-07-20T05:03:47;51.12;46.70;63.48;;
76339;Laerm;26644;50.248;19.032;2023-07-20T05:06:51;52.01;47.16;67.56;;
76339;Laerm;26644;50.248;19.032;2023-07-20T05:09:59;51.83;48.01;69.04;;
76339;Laerm;26644;50.248;19.032;2023-07-20T05:13:04;52.34;48.78;63.00;;
76339;Laerm;26644;50.248;19.032;2023-07-20T05:16:09;61.99;50.54;75.16;;
76339;Laerm;26644;50.248;19.032;2023-07-20T05:19:14;59.92;51.95;69.84;;
76339;Laerm;26644;50.248;19.032;2023-07-20T05:22:19;58.16;51.28;68.04;;
76339;Laerm;26644;50.248;19.032;2023-07-20T05:25:25;58.29;49.91;70.34;;
76339;Laerm;26644;50.248;19.032;2023-07-20T05:28:30;57.94;50.18;76.51;;
76339;Laerm;26644;50.248;19.032;2023-07-20T05:31:34;63.57;50.87;71.42;;
76339;Laerm;26644;50.248;19.032;2023-07-20T05:34:40;59.77;49.82;68.44;;
76339;Laerm;26644;50.248;19.032;2023-07-20T05:37:44;61.39;50.80;71.55;;
76339;Laerm;26644;50.248;19.032;2023-07-20T05:40:51;56.01;51.50;64.40;;
76339;Laerm;26644;50.248;19.032;2023-07-20T05:43:56;64.04;51.73;75.29;;
76339;Laerm;26644;50.248;19.032;2023-07-20T05:47:00;60.92;50.91;72.52;;
76339;Laerm;26644;50.248;19.032;2023-07-20T05:50:06;61.15;51.80;70.71;;
76339;Laerm;26644;50.248;19.032;2023-07-20T05:53:12;60.58;49.41;69.32;;
76339;Laerm;26644;50.248;19.032;2023-07-20T05:56:18;54.71;49.81;64.46;;
76339;Laerm;26644;50.248;19.032;2023-07-20T05:59:24;62.59;49.92;70.56;;
76339;Laerm;26644;50.248;19.032;2023-07-20T06:02:30;62.83;51.37;69.23;;
76339;Laerm;26644;50.248;19.032;2023-07-20T06:05:35;61.68;49.80;67.92;;
76339;Laerm;26644;50.248;19.032;2023-07-20T06:08:39;59.40;51.01;66.49;;
76339;Laerm;26644;50.248;19.032;2023-07-20T06:11:47;58.52;50.52;66.82;;
76339;Laerm;26644;50.248;19.032;2023-07-20T06:14:51;56.16;50.73;71.33;;
76339;Laerm;26644;50.248;19.032;2023-07-20T06:17:56;56.72;49.95;67.04;;
76339;Laerm;26644;50.248;19.032;2023-07-20T06:21:02;61.58;52.55;68.39;;
76339;Laerm;26644;50.248;19.032;2023-07-20T06:24:07;61.57;50.99;71.73;;
76339;Laerm;26644;50.248;19.032;2023-07-20T06:27:14;58.30;50.94;66.69;;
76339;Laerm;26644;50.248;19.032;2023-07-20T06:30:19;61.00;51.20;75.90;;
76339;Laerm;26644;50.248;19.032;2023-07-20T06:33:23;58.19;49.94;71.89;;
76339;Laerm;26644;50.248;19.032;2023-07-20T06:36:28;56.69;50.30;65.71;;
76339;Laerm;26644;50.248;19.032;2023-07-20T06:39:33;58.95;49.57;67.65;;
76339;Laerm;26644;50.248;19.032;2023-07-20T06:42:40;60.60;50.75;67.61;;
76339;Laerm;26644;50.248;19.032;2023-07-20T06:45:44;58.64;50.40;65.20;;
76339;Laerm;26644;50.248;19.032;2023-07-20T06:48:49;58.81;50.36;68.36;;
76339;Laerm;26644;50.248;19.032;2023-07-20T06:51:54;57.27;50.93;66.39;;
76339;Laerm;26644;50.248;19.032;2023-07-20T06:54:59;54.13;50.10;65.89;;
76339;Laerm;26644;50.248;19.032;2023-07-20T06:58:06;53.55;50.25;65.35;;
76339;Laerm;26644;50.248;19.032;2023-07-20T07:01:11;57.86;49.81;68.90;;
76339;Laerm;26644;50.248;19.032;2023-07-20T07:04:16;54.35;50.79;67.19;;
76339;Laerm;26644;50.248;19.032;2023-07-20T07:07:21;52.40;49.45;64.13;;
76339;Laerm;26644;50.248;19.032;2023-07-20T07:10:25;54.88;49.03;64.87;;
76339;Laerm;26644;50.248;19.032;2023-07-20T07:13:32;60.43;51.13;72.33;;
76339;Laerm;26644;50.248;19.032;2023-07-20T07:16:37;57.74;50.38;67.18;;
76339;Laerm;26644;50.248;19.032;2023-07-20T07:19:42;57.44;50.51;66.24;;
76339;Laerm;26644;50.248;19.032;2023-07-20T07:22:47;56.46;51.04;67.10;;
76339;Laerm;26644;50.248;19.032;2023-07-20T07:25:52;55.98;50.90;63.33;;
76339;Laerm;26644;50.248;19.032;2023-07-20T07:28:59;59.69;50.10;64.10;;
76339;Laerm;26644;50.248;19.032;2023-07-20T07:32:05;59.25;50.93;67.64;;
76339;Laerm;26644;50.248;19.032;2023-07-20T07:35:11;57.14;50.02;68.12;;
76339;Laerm;26644;50.248;19.032;2023-07-20T07:38:16;56.32;50.84;67.44;;
76339;Laerm;26644;50.248;19.032;2023-07-20T07:41:20;53.48;49.49;68.78;;
76339;Laerm;26644;50.248;19.032;2023-07-20T07:44:28;60.34;49.51;66.19;;
76339;Laerm;26644;50.248;19.032;2023-07-20T07:47:32;57.46;49.92;66.72;;
76339;Laerm;26644;50.248;19.032;2023-07-20T07:50:38;55.85;50.36;68.30;;
76339;Laerm;26644;50.248;19.032;2023-07-20T07:53:43;57.37;49.10;67.32;;
76339;Laerm;26644;50.248;19.032;2023-07-20T07:56:48;56.17;49.10;69.43;;
76339;Laerm;26644;50.248;19.032;2023-07-20T07:59:55;53.53;48.86;63.16;;
76339;Laerm;26644;50.248;19.032;2023-07-20T08:03:00;52.90;49.89;65.07;;
76339;Laerm;26644;50.248;19.032;2023-07-20T08:06:04;54.29;50.11;72.53;;
76339;Laerm;26644;50.248;19.032;2023-07-20T08:09:09;54.29;49.28;66.61;;
76339;Laerm;26644;50.248;19.032;2023-07-20T08:12:13;54.17;50.01;68.42;;
76339;Laerm;26644;50.248;19.032;2023-07-20T08:15:22;54.25;49.66;67.81;;
76339;Laerm;26644;50.248;19.032;2023-07-20T08:18:27;56.20;50.17;66.27;;
76339;Laerm;26644;50.248;19.032;2023-07-20T08:21:32;56.77;50.80;65.58;;
76339;Laerm;26644;50.248;19.032;2023-07-20T08:24:39;57.52;50.11;62.41;;
76339;Laerm;26644;50.248;19.032;2023-07-20T08:27:44;56.68;50.68;65.48;;
76339;Laerm;26644;50.248;19.032;2023-07-20T08:30:52;56.90;50.13;63.29;;
76339;Laerm;26644;50.248;19.032;2023-07-20T08:33:57;57.98;52.68;66.54;;
76339;Laerm;26644;50.248;19.032;2023-07-20T08:37:01;61.20;50.75;90.06;;
76339;Laerm;26644;50.248;19.032;2023-07-20T08:40:08;57.76;53.10;67.53;;
76339;Laerm;26644;50.248;19.032;2023-07-20T08:43:14;57.84;51.19;67.14;;
76339;Laerm;26644;50.248;19.032;2023-07-20T08:46:26;57.41;49.50;70.21;;
76339;Laerm;26644;50.248;19.032;2023-07-20T08:49:32;57.79;52.83;67.69;;
76339;Laerm;26644;50.248;19.032;2023-07-20T08:52:37;57.66;53.09;70.45;;
76339;Laerm;26644;50.248;19.032;2023-07-20T08:55:44;56.86;51.03;65.36;;
76339;Laerm;26644;50.248;19.032;2023-07-20T08:58:51;58.50;53.83;63.96;;
76339;Laerm;26644;50.248;19.032;2023-07-20T09:02:00;56.58;51.18;64.37;;
76339;Laerm;26644;50.248;19.032;2023-07-20T09:05:08;57.91;51.70;67.42;;
76339;Laerm;26644;50.248;19.032;2023-07-20T09:08:14;57.72;50.57;65.82;;
76339;Laerm;26644;50.248;19.032;2023-07-20T09:11:19;54.66;50.66;63.72;;
76339;Laerm;26644;50.248;19.032;2023-07-20T09:14:24;55.99;49.67;63.45;;
76339;Laerm;26644;50.248;19.032;2023-07-20T09:17:32;54.23;49.57;63.48;;
76339;Laerm;26644;50.248;19.032;2023-07-20T09:20:36;53.39;49.03;65.30;;
76339;Laerm;26644;50.248;19.032;2023-07-20T09:23:41;55.55;50.52;64.77;;
76339;Laerm;26644;50.248;19.032;2023-07-20T09:26:48;56.97;49.79;64.65;;
76339;Laerm;26644;50.248;19.032;2023-07-20T09:29:53;58.43;50.01;69.80;;
76339;Laerm;26644;50.248;19.032;2023-07-20T09:33:00;57.75;51.69;68.73;;
76339;Laerm;26644;50.248;19.032;2023-07-20T09:36:05;55.37;50.42;63.25;;
76339;Laerm;26644;50.248;19.032;2023-07-20T09:39:10;59.76;51.17;73.34;;
76339;Laerm;26644;50.248;19.032;2023-07-20T09:42:15;60.81;52.28;66.55;;
76339;Laerm;26644;50.248;19.032;2023-07-20T09:45:20;59.69;52.88;67.17;;
76339;Laerm;26644;50.248;19.032;2023-07-20T09:48:29;55.97;50.77;63.30;;
76339;Laerm;26644;50.248;19.032;2023-07-20T09:51:34;56.66;50.01;66.59;;
76339;Laerm;26644;50.248;19.032;2023-07-20T09:54:40;57.07;49.59;63.33;;
76339;Laerm;26644;50.248;19.032;2023-07-20T09:57:45;57.87;50.18;65.17;;
76339;Laerm;26644;50.248;19.032;2023-07-20T10:00:53;54.14;50.37;69.87;;
76339;Laerm;26644;50.248;19.032;2023-07-20T10:04:04;56.40;51.01;62.81;;
76339;Laerm;26644;50.248;19.032;2023-07-20T10:07:14;55.77;49.48;62.83;;
76339;Laerm;26644;50.248;19.032;2023-07-20T10:10:23;58.33;50.00;65.32;;
76339;Laerm;26644;50.248;19.032;2023-07-20T10:13:30;58.20;50.94;67.99;;
76339;Laerm;26644;50.248;19.032;2023-07-20T10:16:40;53.77;49.57;71.42;;
76339;Laerm;26644;50.248;19.032;2023-07-20T10:19:57;54.04;49.46;64.20;;
76339;Laerm;26644;50.248;19.032;2023-07-20T10:23:05;55.04;48.78;65.01;;
76339;Laerm;26644;50.248;19.032;2023-07-20T10:26:11;57.46;51.32;65.76;;
76339;Laerm;26644;50.248;19.032;2023-07-20T10:29:18;57.10;49.82;70.04;;
76339;Laerm;26644;50.248;19.032;2023-07-20T10:32:24;56.36;50.30;64.20;;
76339;Laerm;26644;50.248;19.032;2023-07-20T10:35:52;55.63;50.33;61.72;;
76339;Laerm;26644;50.248;19.032;2023-07-20T10:38:58;55.46;50.18;69.68;;
76339;Laerm;26644;50.248;19.032;2023-07-20T10:42:06;54.04;49.66;63.66;;
76339;Laerm;26644;50.248;19.032;2023-07-20T10:45:12;53.21;49.38;77.38;;
76339;Laerm;26644;50.248;19.032;2023-07-20T10:48:20;52.87;48.97;58.50;;
76339;Laerm;26644;50.248;19.032;2023-07-20T10:51:29;53.53;50.14;57.26;;
76339;Laerm;26644;50.248;19.032;2023-07-20T10:54:49;53.52;48.83;69.98;;
76339;Laerm;26644;50.248;19.032;2023-07-20T10:58:07;53.69;50.28;59.33;;
76339;Laerm;26644;50.248;19.032;2023-07-20T11:01:16;52.79;49.29;61.98;;
76339;Laerm;26644;50.248;19.032;2023-07-20T11:04:38;53.74;49.89;63.27;;
76339;Laerm;26644;50.248;19.032;2023-07-20T11:07:45;53.71;50.35;63.14;;
76339;Laerm;26644;50.248;19.032;2023-07-20T11:11:23;52.81;49.08;67.51;;
76339;Laerm;26644;50.248;19.032;2023-07-20T11:14:27;51.76;48.48;58.76;;
76339;Laerm;26644;50.248;19.032;2023-07-20T11:17:39;51.69;48.30;60.67;;
76339;Laerm;26644;50.248;19.032;2023-07-20T11:20:43;53.07;48.69;65.37;;
76339;Laerm;26644;50.248;19.032;2023-07-20T11:23:52;53.29;48.72;61.82;;
76339;Laerm;26644;50.248;19.032;2023-07-20T11:26:57;51.46;47.96;58.70;;
76339;Laerm;26644;50.248;19.032;2023-07-20T11:30:03;53.04;48.51;59.79;;
76339;Laerm;26644;50.248;19.032;2023-07-20T11:33:08;53.67;50.04;61.86;;
76339;Laerm;26644;50.248;19.032;2023-07-20T11:36:14;57.35;50.23;70.97;;
76339;Laerm;26644;50.248;19.032;2023-07-20T11:39:23;55.52;49.71;62.59;;
76339;Laerm;26644;50.248;19.032;2023-07-20T11:42:28;53.94;49.34;57.58;;
76339;Laerm;26644;50.248;19.032;2023-07-20T11:45:33;54.31;49.92;58.57;;
76339;Laerm;26644;50.248;19.032;2023-07-20T11:48:38;55.34;50.30;66.65;;
76339;Laerm;26644;50.248;19.032;2023-07-20T11:51:42;55.72;50.66;62.87;;
76339;Laerm;26644;50.248;19.032;2023-07-20T11:54:50;55.63;50.37;67.57;;
76339;Laerm;26644;50.248;19.032;2023-07-20T11:58:04;56.39;49.73;67.90;;
76339;Laerm;26644;50.248;19.032;2023-07-20T12:01:11;56.17;50.35;65.17;;
76339;Laerm;26644;50.248;19.032;2023-07-20T12:04:16;56.58;51.45;64.75;;
76339;Laerm;26644;50.248;19.032;2023-07-20T12:07:22;57.16;49.63;66.29;;
76339;Laerm;26644;50.248;19.032;2023-07-20T12:10:29;58.88;49.98;66.49;;
76339;Laerm;26644;50.248;19.032;2023-07-20T12:13:42;54.96;48.69;61.37;;
76339;Laerm;26644;50.248;19.032;2023-07-20T12:16:53;55.49;50.14;68.04;;
76339;Laerm;26644;50.248;19.032;2023-07-20T12:19:59;57.22;50.56;67.98;;
76339;Laerm;26644;50.248;19.032;2023-07-20T12:23:08;56.92;50.43;64.36;;
76339;Laerm;26644;50.248;19.032;2023-07-20T12:26:16;55.07;49.59;62.13;;
76339;Laerm;26644;50.248;19.032;2023-07-20T12:29:21;56.29;50.24;67.74;;
76339;Laerm;26644;50.248;19.032;2023-07-20T12:32:26;54.95;50.32;65.40;;
76339;Laerm;26644;50.248;19.032;2023-07-20T12:35:31;57.08;51.90;69.17;;
76339;Laerm;26644;50.248;19.032;2023-07-20T12:38:36;58.14;51.63;65.98;;
76339;Laerm;26644;50.248;19.032;2023-07-20T12:41:45;57.12;51.20;67.37;;
76339;Laerm;26644;50.248;19.032;2023-07-20T12:44:50;54.42;49.74;61.48;;
76339;Laerm;26644;50.248;19.032;2023-07-20T12:47:54;55.22;51.18;68.08;;
76339;Laerm;26644;50.248;19.032;2023-07-20T12:50:59;54.07;50.42;67.79;;
76339;Laerm;26644;50.248;19.032;2023-07-20T12:54:04;56.28;50.33;61.71;;
76339;Laerm;26644;50.248;19.032;2023-07-20T12:57:11;56.44;50.08;66.90;;
76339;Laerm;26644;50.248;19.032;2023-07-20T13:00:17;56.21;50.68;64.56;;
76339;Laerm;26644;50.248;19.032;2023-07-20T13:03:22;56.03;51.41;63.37;;
76339;Laerm;26644;50.248;19.032;2023-07-20T13:06:26;56.29;49.80;65.68;;
76339;Laerm;26644;50.248;19.032;2023-07-20T13:09:31;55.42;51.33;60.40;;
76339;Laerm;26644;50.248;19.032;2023-07-20T13:12:38;57.54;52.34;64.28;;
76339;Laerm;26644;50.248;19.032;2023-07-20T13:15:44;57.42;51.15;62.91;;
76339;Laerm;26644;50.248;19.032;2023-07-20T13:18:50;58.15;51.35;76.72;;
76339;Laerm;26644;50.248;19.032;2023-07-20T13:21:55;55.61;51.76;63.02;;
76339;Laerm;26644;50.248;19.032;2023-07-20T13:24:59;56.91;51.57;62.72;;
76339;Laerm;26644;50.248;19.032;2023-07-20T13:28:07;58.34;51.40;64.95;;
76339;Laerm;26644;50.248;19.032;2023-07-20T13:31:12;57.28;51.47;66.75;;
76339;Laerm;26644;50.248;19.032;2023-07-20T13:34:18;54.88;49.97;66.87;;
76339;Laerm;26644;50.248;19.032;2023-07-20T13:37:22;57.05;51.32;67.84;;
76339;Laerm;26644;50.248;19.032;2023-07-20T13:40:27;55.77;49.40;71.25;;
76339;Laerm;26644;50.248;19.032;2023-07-20T13:43:34;55.17;49.62;59.00;;
76339;Laerm;26644;50.248;19.032;2023-07-20T13:46:39;55.70;49.64;61.55;;
76339;Laerm;26644;50.248;19.032;2023-07-20T13:49:44;56.03;51.59;74.20;;
76339;Laerm;26644;50.248;19.032;2023-07-20T13:52:49;56.60;52.55;72.36;;
76339;Laerm;26644;50.248;19.032;2023-07-20T13:55:53;56.08;51.19;65.61;;
76339;Laerm;26644;50.248;19.032;2023-07-20T13:59:01;55.70;50.18;60.36;;
76339;Laerm;26644;50.248;19.032;2023-07-20T14:02:05;53.06;49.33;58.79;;
76339;Laerm;26644;50.248;19.032;2023-07-20T14:05:10;57.05;49.61;62.63;;
76339;Laerm;26644;50.248;19.032;2023-07-20T14:08:16;54.97;49.80;63.14;;
76339;Laerm;26644;50.248;19.032;2023-07-20T14:11:21;54.64;50.12;59.83;;
76339;Laerm;26644;50.248;19.032;2023-07-20T14:14:28;54.50;50.81;66.73;;
76339;Laerm;26644;50.248;19.032;2023-07-20T14:17:33;55.80;51.32;68.70;;
76339;Laerm;26644;50.248;19.032;2023-07-20T14:20:37;54.45;50.29;60.23;;
76339;Laerm;26644;50.248;19.032;2023-07-20T14:23:45;54.04;49.77;65.11;;
76339;Laerm;26644;50.248;19.032;2023-07-20T14:26:49;52.87;49.57;65.47;;
76339;Laerm;26644;50.248;19.032;2023-07-20T14:29:56;53.60;49.72;68.58;;
76339;Laerm;26644;50.248;19.032;2023-07-20T14:33:01;54.37;51.41;60.89;;
76339;Laerm;26644;50.248;19.032;2023-07-20T14:36:06;54.03;50.37;66.19;;
76339;Laerm;26644;50.248;19.032;2023-07-20T14:39:10;54.02;50.27;60.54;;
76339;Laerm;26644;50.248;19.032;2023-07-20T14:42:15;53.50;49.71;62.56;;
76339;Laerm;26644;50.248;19.032;2023-07-20T14:45:22;54.52;50.81;63.50;;
76339;Laerm;26644;50.248;19.032;2023-07-20T14:48:27;54.22;50.23;65.87;;
76339;Laerm;26644;50.248;19.032;2023-07-20T14:51:31;53.89;48.52;68.77;;
76339;Laerm;26644;50.248;19.032;2023-07-20T14:54:38;53.43;49.74;64.34;;
76339;Laerm;26644;50.248;19.032;2023-07-20T14:57:42;55.10;50.89;70.53;;
76339;Laerm;26644;50.248;19.032;2023-07-20T15:00:50;55.59;51.35;65.79;;
76339;Laerm;26644;50.248;19.032;2023-07-20T15:03:54;55.10;49.71;69.13;;
76339;Laerm;26644;50.248;19.032;2023-07-20T15:06:59;53.52;49.47;68.49;;
76339;Laerm;26644;50.248;19.032;2023-07-20T15:10:06;53.84;50.50;62.40;;
76339;Laerm;26644;50.248;19.032;2023-07-20T15:13:11;53.83;50.27;59.55;;
76339;Laerm;26644;50.248;19.032;2023-07-20T15:16:18;53.99;50.53;63.83;;
76339;Laerm;26644;50.248;19.032;2023-07-20T15:19:23;54.29;50.22;69.05;;
76339;Laerm;26644;50.248;19.032;2023-07-20T15:22:27;54.12;49.65;65.90;;
76339;Laerm;26644;50.248;19.032;2023-07-20T15:25:36;53.26;50.08;61.27;;
76339;Laerm;26644;50.248;19.032;2023-07-20T15:28:40;53.64;49.58;65.38;;
76339;Laerm;26644;50.248;19.032;2023-07-20T15:31:48;54.05;49.59;71.43;;
76339;Laerm;26644;50.248;19.032;2023-07-20T15:34:52;53.77;49.71;66.67;;
76339;Laerm;26644;50.248;19.032;2023-07-20T15:37:57;53.76;49.41;74.08;;
76339;Laerm;26644;50.248;19.032;2023-07-20T15:41:02;52.62;49.51;58.41;;
76339;Laerm;26644;50.248;19.032;2023-07-20T15:44:07;52.90;49.09;63.58;;
76339;Laerm;26644;50.248;19.032;2023-07-20T15:47:14;53.47;49.40;63.20;;
76339;Laerm;26644;50.248;19.032;2023-07-20T15:50:19;53.54;49.77;60.77;;
76339;Laerm;26644;50.248;19.032;2023-07-20T15:53:23;52.52;48.79;58.17;;
76339;Laerm;26644;50.248;19.032;2023-07-20T15:56:28;53.60;50.00;65.01;;
76339;Laerm;26644;50.248;19.032;2023-07-20T15:59:32;53.23;48.59;64.61;;
76339;Laerm;26644;50.248;19.032;2023-07-20T16:02:40;53.34;49.40;63.88;;
76339;Laerm;26644;50.248;19.032;2023-07-20T16:05:44;54.33;49.88;65.79;;
76339;Laerm;26644;50.248;19.032;2023-07-20T16:08:49;53.72;49.76;62.21;;
76339;Laerm;26644;50.248;19.032;2023-07-20T16:11:54;53.13;49.03;58.52;;
76339;Laerm;26644;50.248;19.032;2023-07-20T16:15:00;52.58;47.98;60.75;;
76339;Laerm;26644;50.248;19.032;2023-07-20T16:18:07;52.73;47.89;62.09;;
76339;Laerm;26644;50.248;19.032;2023-07-20T16:21:12;52.87;48.90;67.48;;
76339;Laerm;26644;50.248;19.032;2023-07-20T16:24:17;52.20;48.45;58.31;;
76339;Laerm;26644;50.248;19.032;2023-07-20T16:27:22;53.95;48.05;71.45;;
76339;Laerm;26644;50.248;19.032;2023-07-20T16:30:28;52.09;48.22;58.25;;
76339;Laerm;26644;50.248;19.032;2023-07-20T16:33:35;51.83;48.41;57.66;;
76339;Laerm;26644;50.248;19.032;2023-07-20T16:36:40;52.46;48.86;58.11;;
76339;Laerm;26644;50.248;19.032;2023-07-20T16:39:45;52.63;49.59;61.98;;
76339;Laerm;26644;50.248;19.032;2023-07-20T16:42:49;52.15;48.25;60.00;;
76339;Laerm;26644;50.248;19.032;2023-07-20T16:45:59;51.63;48.26;58.66;;
76339;Laerm;26644;50.248;19.032;2023-07-20T16:49:06;52.86;48.50;62.50;;
76339;Laerm;26644;50.248;19.032;2023-07-20T16:52:11;52.20;48.48;64.99;;
76339;Laerm;26644;50.248;19.032;2023-07-20T16:55:16;53.29;48.77;69.60;;
76339;Laerm;26644;50.248;19.032;2023-07-20T16:58:24;52.62;48.82;59.81;;
76339;Laerm;26644;50.248;19.032;2023-07-20T17:01:29;52.32;48.60;60.74;;
76339;Laerm;26644;50.248;19.032;2023-07-20T17:04:37;53.50;48.18;64.99;;
76339;Laerm;26644;50.248;19.032;2023-07-20T17:07:42;52.20;48.70;59.16;;